Terminal Aerodrome Forecast
Issued by NWS Mt. Holly, NJ

Home | Current Version | Previous Version | Text Only | Print | Product List | Glossary On
Versions: 1 2 3 4 5 6 7 8 9 10 11 12 13 14 15 16 17 18 19 20 21 22 23 24 25 26 27 28 29 30 31 32 33 34 35 36 37 38 39 40 41 42 43 44 45 46 47 48 49 50
000
FTUS41 KPHI 230100 AAA
TAFABE
TAF AMD
KABE 230101Z 2301/2324 34010G20KT P6SM -SHRA SCT015 OVC030
     FM230200 33016G24KT P6SM -SHRA SCT015 OVC030
     FM231400 34017G28KT P6SM OVC025 PROB30 2314/2318 P6SM -RA
      OVC015
     FM232100 34016G24KT P6SM SCT025 OVC050=

USA.gov is the U.S. government's official web portal to all federal, state and local government web resources and services.